Time,TemperatureF,DewpointF,PressureIn,WindDirection,WindDirectionDegrees,WindSpeedMPH,WindSpeedGustMPH,Humidity,HourlyPrecipIn,Conditions,Clouds,dailyrainin,SoftwareType,DateUTC
2013-02-24 00:00:00,48.3,39.0,29.96,WSW,256,5.0,11.0,69,0.00,,,0.00,weatherlink.com 1.10,2013-02-24 05:00:00,
2013-02-24 00:15:00,47.9,39.0,29.96,WSW,250,3.0,10.0,70,0.00,,,0.00,weatherlink.com 1.10,2013-02-24 05:15:00,
2013-02-24 00:30:00,47.7,39.0,29.96,WSW,253,2.0,7.0,72,0.00,,,0.00,weatherlink.com 1.10,2013-02-24 05:30:00,
2013-02-24 00:45:00,47.2,40.0,29.96,WSW,257,3.0,10.0,75,0.00,,,0.00,weatherlink.com 1.10,2013-02-24 05:45:00,
2013-02-24 01:00:00,47.0,40.0,29.96,West,268,0.0,10.0,76,0.00,,,0.00,weatherlink.com 1.10,2013-02-24 06:00:00,
2013-02-24 01:15:00,46.8,40.0,29.96,WSW,253,4.0,14.0,78,0.00,,,0.00,weatherlink.com 1.10,2013-02-24 06:15:00,
2013-02-24 01:30:00,46.7,40.0,29.95,West,259,0.0,7.0,78,0.00,,,0.00,weatherlink.com 1.10,2013-02-24 06:30:00,
2013-02-24 01:45:00,46.4,40.0,29.95,WSW,251,5.0,7.0,79,0.00,,,0.00,weatherlink.com 1.10,2013-02-24 06:45:00,
2013-02-24 02:00:00,46.5,40.0,29.96,WSW,257,0.0,9.0,79,0.00,,,0.00,weatherlink.com 1.10,2013-02-24 07:00:00,
2013-02-24 02:15:00,45.5,40.0,29.95,West,277,2.0,6.0,80,0.00,,,0.00,weatherlink.com 1.10,2013-02-24 07:15:00,
2013-02-24 02:30:00,45.7,40.0,29.95,WSW,242,14.0,18.0,80,0.00,,,0.00,weatherlink.com 1.10,2013-02-24 07:30:00,
2013-02-24 02:45:00,45.8,39.0,29.95,West,273,6.0,14.0,78,0.00,,,0.00,weatherlink.com 1.10,2013-02-24 07:45:00,
2013-02-24 03:00:00,45.6,39.0,29.95,NNW,331,2.0,13.0,79,0.00,,,0.00,weatherlink.com 1.10,2013-02-24 08:00:00,
2013-02-24 03:15:00,45.2,39.0,29.95,WNW,284,9.0,15.0,80,0.00,,,0.00,weatherlink.com 1.10,2013-02-24 08:15:00,
2013-02-24 03:30:00,44.8,39.0,29.96,West,275,3.0,11.0,80,0.00,,,0.00,weatherlink.com 1.10,2013-02-24 08:30:00,
2013-02-24 03:45:00,44.3,39.0,29.96,WSW,243,2.0,11.0,81,0.00,,,0.00,weatherlink.com 1.10,2013-02-24 08:45:00,
2013-02-24 04:00:00,43.8,38.0,29.96,West,267,1.0,8.0,81,0.00,,,0.00,weatherlink.com 1.10,2013-02-24 09:00:00,
2013-02-24 04:15:00,43.4,38.0,29.96,WSW,258,3.0,10.0,82,0.00,,,0.00,weatherlink.com 1.10,2013-02-24 09:15:00,
2013-02-24 04:30:00,42.9,38.0,29.97,West,263,4.0,10.0,82,0.00,,,0.00,weatherlink.com 1.10,2013-02-24 09:30:00,
2013-02-24 04:45:00,42.3,37.0,29.98,SW,231,2.0,9.0,81,0.00,,,0.00,weatherlink.com 1.10,2013-02-24 09:45:00,
2013-02-24 05:00:00,41.9,37.0,29.98,West,263,3.0,8.0,81,0.00,,,0.00,weatherlink.com 1.10,2013-02-24 10:00:00,
2013-02-24 05:16:00,41.6,36.0,29.98,SW,229,0.0,12.0,81,0.00,,,0.00,weatherlink.com 1.10,2013-02-24 10:16:00,
2013-02-24 05:31:00,41.3,36.0,29.99,West,281,2.0,9.0,81,0.00,,,0.00,weatherlink.com 1.10,2013-02-24 10:31:00,
2013-02-24 05:46:00,41.0,36.0,29.99,West,264,4.0,10.0,81,0.00,,,0.00,weatherlink.com 1.10,2013-02-24 10:46:00,
2013-02-24 06:01:00,40.5,35.0,30.00,West,268,3.0,7.0,82,0.00,,,0.00,weatherlink.com 1.10,2013-02-24 11:01:00,
2013-02-24 06:16:00,39.9,35.0,30.01,SSW,202,0.0,3.0,83,0.00,,,0.00,weatherlink.com 1.10,2013-02-24 11:16:00,
2013-02-24 06:31:00,39.2,35.0,30.01,WSW,249,0.0,4.0,84,0.00,,,0.00,weatherlink.com 1.10,2013-02-24 11:31:00,
2013-02-24 06:46:00,39.3,35.0,30.02,WSW,257,0.0,10.0,83,0.00,,,0.00,weatherlink.com 1.10,2013-02-24 11:46:00,
2013-02-24 07:01:00,39.1,34.0,30.02,WSW,257,4.0,11.0,82,0.00,,,0.00,weatherlink.com 1.10,2013-02-24 12:01:00,
2013-02-24 07:16:00,38.9,34.0,30.03,WNW,283,7.0,12.0,82,0.00,,,0.00,weatherlink.com 1.10,2013-02-24 12:16:00,
2013-02-24 07:31:00,39.1,34.0,30.04,WNW,284,6.0,16.0,81,0.00,,,0.00,weatherlink.com 1.10,2013-02-24 12:31:00,
2013-02-24 07:46:00,38.9,34.0,30.05,West,273,2.0,6.0,81,0.00,,,0.00,weatherlink.com 1.10,2013-02-24 12:46:00,
2013-02-24 08:01:00,39.1,33.0,30.05,WSW,252,3.0,9.0,79,0.00,,,0.00,weatherlink.com 1.10,2013-02-24 13:01:00,
2013-02-24 08:16:00,39.3,33.0,30.06,West,263,5.0,12.0,78,0.00,,,0.00,weatherlink.com 1.10,2013-02-24 13:16:00,
2013-02-24 08:31:00,39.5,33.0,30.07,WSW,239,2.0,4.0,78,0.00,,,0.00,weatherlink.com 1.10,2013-02-24 13:31:00,
2013-02-24 08:46:00,39.2,33.0,30.08,WSW,255,0.0,5.0,77,0.00,,,0.00,weatherlink.com 1.10,2013-02-24 13:46:00,
2013-02-24 09:01:00,39.6,32.0,30.08,West,274,2.0,10.0,73,0.00,,,0.00,weatherlink.com 1.10,2013-02-24 14:01:00,
2013-02-24 09:16:00,40.0,31.0,30.07,West,268,1.0,14.0,71,0.00,,,0.00,weatherlink.com 1.10,2013-02-24 14:16:00,
2013-02-24 09:31:00,40.2,31.0,30.08,NW,310,1.0,11.0,69,0.00,,,0.00,weatherlink.com 1.10,2013-02-24 14:31:00,
2013-02-24 09:46:00,40.7,30.0,30.07,WNW,284,1.0,12.0,65,0.00,,,0.00,weatherlink.com 1.10,2013-02-24 14:46:00,
2013-02-24 10:01:00,41.0,29.0,30.08,West,275,4.0,19.0,63,0.00,,,0.00,weatherlink.com 1.10,2013-02-24 15:01:00,
2013-02-24 10:16:00,41.1,29.0,30.09,WSW,257,6.0,14.0,63,0.00,,,0.00,weatherlink.com 1.10,2013-02-24 15:16:00,
2013-02-24 10:31:00,41.5,29.0,30.08,WSW,257,1.0,17.0,61,0.00,,,0.00,weatherlink.com 1.10,2013-02-24 15:31:00,
2013-02-24 10:46:00,42.3,29.0,30.09,West,269,3.0,14.0,59,0.00,,,0.00,weatherlink.com 1.10,2013-02-24 15:46:00,
2013-02-24 11:01:00,42.9,28.0,30.09,West,277,2.0,15.0,55,0.00,,,0.00,weatherlink.com 1.10,2013-02-24 16:01:00,
2013-02-24 11:16:00,43.6,27.0,30.08,West,264,2.0,11.0,53,0.00,,,0.00,weatherlink.com 1.10,2013-02-24 16:16:00,
2013-02-24 11:31:00,44.7,25.0,30.09,West,276,3.0,13.0,47,0.00,,,0.00,weatherlink.com 1.10,2013-02-24 16:31:00,
2013-02-24 11:46:00,45.1,25.0,30.09,WSW,240,4.0,13.0,45,0.00,,,0.00,weatherlink.com 1.10,2013-02-24 16:46:00,
2013-02-24 12:01:00,45.8,25.0,30.09,West,268,3.0,13.0,45,0.00,,,0.00,weatherlink.com 1.10,2013-02-24 17:01:00,
2013-02-24 12:16:00,46.9,27.0,30.08,NW,319,2.0,11.0,46,0.00,,,0.00,weatherlink.com 1.10,2013-02-24 17:16:00,
2013-02-24 12:31:00,47.8,26.0,30.08,West,279,2.0,13.0,42,0.00,,,0.00,weatherlink.com 1.10,2013-02-24 17:31:00,
2013-02-24 12:46:00,48.5,25.0,30.08,West,259,7.0,11.0,40,0.00,,,0.00,weatherlink.com 1.10,2013-02-24 17:46:00,
2013-02-24 13:01:00,48.7,24.0,30.07,WSW,254,5.0,12.0,38,0.00,,,0.00,weatherlink.com 1.10,2013-02-24 18:01:00,
2013-02-24 13:17:00,49.3,23.0,30.06,WNW,295,5.0,14.0,35,0.00,,,0.00,weatherlink.com 1.10,2013-02-24 18:17:00,
2013-02-24 13:32:00,50.2,22.0,30.07,WNW,302,6.0,12.0,33,0.00,,,0.00,weatherlink.com 1.10,2013-02-24 18:32:00,
2013-02-24 13:47:00,50.4,22.0,30.06,North,5,0.0,7.0,33,0.00,,,0.00,weatherlink.com 1.10,2013-02-24 18:47:00,
2013-02-24 14:03:00,51.3,21.0,30.06,WNW,297,2.0,10.0,30,0.00,,,0.00,weatherlink.com 1.10,2013-02-24 19:03:00,
2013-02-24 14:17:00,51.6,20.0,30.05,NW,311,4.0,10.0,29,0.00,,,0.00,weatherlink.com 1.10,2013-02-24 19:17:00,
2013-02-24 14:32:00,51.7,21.0,30.05,West,266,5.0,12.0,30,0.00,,,0.00,weatherlink.com 1.10,2013-02-24 19:32:00,
2013-02-24 14:47:00,51.3,20.0,30.05,West,267,6.0,12.0,29,0.00,,,0.00,weatherlink.com 1.10,2013-02-24 19:47:00,
2013-02-24 15:02:00,51.4,21.0,30.05,WNW,302,3.0,14.0,30,0.00,,,0.00,weatherlink.com 1.10,2013-02-24 20:02:00,
2013-02-24 15:17:00,51.6,20.0,30.06,WSW,255,6.0,11.0,29,0.00,,,0.00,weatherlink.com 1.10,2013-02-24 20:17:00,
2013-02-24 15:32:00,51.7,20.0,30.06,West,277,7.0,15.0,29,0.00,,,0.00,weatherlink.com 1.10,2013-02-24 20:32:00,
2013-02-24 15:47:00,51.5,22.0,30.06,WSW,257,8.0,12.0,31,0.00,,,0.00,weatherlink.com 1.10,2013-02-24 20:47:00,
2013-02-24 16:02:00,51.0,20.0,30.05,WNW,298,13.0,17.0,30,0.00,,,0.00,weatherlink.com 1.10,2013-02-24 21:02:00,
2013-02-24 16:17:00,50.8,20.0,30.06,WNW,289,7.0,16.0,30,0.00,,,0.00,weatherlink.com 1.10,2013-02-24 21:17:00,
2013-02-24 16:32:00,51.0,20.0,30.06,WSW,257,6.0,10.0,30,0.00,,,0.00,weatherlink.com 1.10,2013-02-24 21:32:00,
2013-02-24 16:47:00,51.0,20.0,30.06,West,277,4.0,12.0,30,0.00,,,0.00,weatherlink.com 1.10,2013-02-24 21:47:00,
2013-02-24 17:02:00,51.0,22.0,30.06,West,278,1.0,9.0,32,0.00,,,0.00,weatherlink.com 1.10,2013-02-24 22:02:00,
2013-02-24 17:17:00,50.6,22.0,30.06,West,261,8.0,10.0,32,0.00,,,0.00,weatherlink.com 1.10,2013-02-24 22:17:00,
2013-02-24 17:32:00,50.3,21.0,30.06,WSW,242,4.0,10.0,32,0.00,,,0.00,weatherlink.com 1.10,2013-02-24 22:32:00,
2013-02-24 17:47:00,49.8,20.0,30.07,NW,316,5.0,14.0,31,0.00,,,0.00,weatherlink.com 1.10,2013-02-24 22:47:00,
2013-02-24 18:02:00,49.3,20.0,30.08,WNW,294,5.0,8.0,31,0.00,,,0.00,weatherlink.com 1.10,2013-02-24 23:02:00,
2013-02-24 18:17:00,48.9,20.0,30.08,WSW,250,2.0,6.0,32,0.00,,,0.00,weatherlink.com 1.10,2013-02-24 23:17:00,
2013-02-24 18:32:00,48.5,20.0,30.09,West,261,4.0,12.0,33,0.00,,,0.00,weatherlink.com 1.10,2013-02-24 23:32:00,
2013-02-24 18:47:00,47.9,21.0,30.09,WSW,255,8.0,8.0,34,0.00,,,0.00,weatherlink.com 1.10,2013-02-24 23:47:00,
2013-02-24 19:02:00,47.6,21.0,30.10,West,259,2.0,9.0,35,0.00,,,0.00,weatherlink.com 1.10,2013-02-25 00:02:00,
2013-02-24 19:17:00,47.1,21.0,30.11,WSW,253,3.0,7.0,36,0.00,,,0.00,weatherlink.com 1.10,2013-02-25 00:17:00,
2013-02-24 19:32:00,46.7,22.0,30.12,WSW,247,2.0,10.0,38,0.00,,,0.00,weatherlink.com 1.10,2013-02-25 00:32:00,
2013-02-24 19:47:00,46.0,22.0,30.12,SSE,153,0.0,6.0,39,0.00,,,0.00,weatherlink.com 1.10,2013-02-25 00:47:00,
2013-02-24 20:02:00,45.3,22.0,30.12,SW,219,0.0,6.0,40,0.00,,,0.00,weatherlink.com 1.10,2013-02-25 01:02:00,
2013-02-24 20:17:00,44.7,23.0,30.13,WSW,254,2.0,7.0,42,0.00,,,0.00,weatherlink.com 1.10,2013-02-25 01:17:00,
2013-02-24 20:32:00,44.5,22.0,30.13,West,266,2.0,9.0,41,0.00,,,0.00,weatherlink.com 1.10,2013-02-25 01:32:00,
2013-02-24 20:47:00,44.4,22.0,30.13,WNW,282,0.0,9.0,41,0.00,,,0.00,weatherlink.com 1.10,2013-02-25 01:47:00,
2013-02-24 21:02:00,44.0,22.0,30.13,West,265,0.0,7.0,42,0.00,,,0.00,weatherlink.com 1.10,2013-02-25 02:02:00,
2013-02-24 21:17:00,43.6,22.0,30.13,WSW,246,1.0,4.0,43,0.00,,,0.00,weatherlink.com 1.10,2013-02-25 02:17:00,
2013-02-24 21:32:00,43.4,22.0,30.14,WSW,253,2.0,7.0,43,0.00,,,0.00,weatherlink.com 1.10,2013-02-25 02:32:00,
2013-02-24 21:47:00,43.6,22.0,30.14,West,260,1.0,9.0,42,0.00,,,0.00,weatherlink.com 1.10,2013-02-25 02:47:00,
2013-02-24 22:02:00,43.3,22.0,30.14,WSW,257,0.0,6.0,43,0.00,,,0.00,weatherlink.com 1.10,2013-02-25 03:02:00,
2013-02-24 22:17:00,42.8,22.0,30.14,SW,232,2.0,4.0,44,0.00,,,0.00,weatherlink.com 1.10,2013-02-25 03:17:00,
2013-02-24 22:32:00,42.0,22.0,30.14,South,190,0.0,3.0,46,0.00,,,0.00,weatherlink.com 1.10,2013-02-25 03:32:00,
2013-02-24 22:47:00,41.1,23.0,30.14,SSE,148,2.0,4.0,48,0.00,,,0.00,weatherlink.com 1.10,2013-02-25 03:47:00,
2013-02-24 23:02:00,40.3,22.0,30.13,SSE,154,2.0,3.0,48,0.00,,,0.00,weatherlink.com 1.10,2013-02-25 04:02:00,
2013-02-24 23:17:00,39.9,22.0,30.13,SSE,154,0.0,2.0,49,0.00,,,0.00,weatherlink.com 1.10,2013-02-25 04:17:00,
2013-02-24 23:32:00,39.6,23.0,30.13,WSW,255,0.0,4.0,52,0.00,,,0.00,weatherlink.com 1.10,2013-02-25 04:32:00,
2013-02-24 23:47:00,39.5,23.0,30.12,WSW,243,0.0,3.0,53,0.00,,,0.00,weatherlink.com 1.10,2013-02-25 04:47:00,